sensor_id;sensor_type;location;lat;lon;timestamp;P1;durP1;ratioP1;P2;durP2;ratioP2
994;SDS011;486;48.726;8.964;2022-10-17T00:01:36;4.03;;;3.60;;
994;SDS011;486;48.726;8.964;2022-10-17T00:04:05;5.00;;;4.60;;
994;SDS011;486;48.726;8.964;2022-10-17T00:06:37;4.90;;;4.50;;
994;SDS011;486;48.726;8.964;2022-10-17T00:09:06;4.60;;;4.20;;
994;SDS011;486;48.726;8.964;2022-10-17T00:11:36;4.80;;;4.40;;
994;SDS011;486;48.726;8.964;2022-10-17T00:14:05;5.63;;;4.70;;
994;SDS011;486;48.726;8.964;2022-10-17T00:16:34;4.40;;;4.10;;
994;SDS011;486;48.726;8.964;2022-10-17T00:19:04;5.00;;;3.90;;
994;SDS011;486;48.726;8.964;2022-10-17T00:21:37;5.23;;;4.03;;
994;SDS011;486;48.726;8.964;2022-10-17T00:24:06;5.30;;;4.00;;
994;SDS011;486;48.726;8.964;2022-10-17T00:26:35;4.77;;;4.37;;
994;SDS011;486;48.726;8.964;2022-10-17T00:29:04;4.93;;;4.53;;
994;SDS011;486;48.726;8.964;2022-10-17T00:31:33;5.20;;;4.73;;
994;SDS011;486;48.726;8.964;2022-10-17T00:34:03;4.07;;;3.73;;
994;SDS011;486;48.726;8.964;2022-10-17T00:36:32;5.53;;;4.77;;
994;SDS011;486;48.726;8.964;2022-10-17T00:39:04;4.93;;;4.53;;
994;SDS011;486;48.726;8.964;2022-10-17T00:41:33;4.87;;;4.40;;
994;SDS011;486;48.726;8.964;2022-10-17T00:44:04;5.27;;;4.33;;
994;SDS011;486;48.726;8.964;2022-10-17T00:47:12;5.00;;;4.60;;
994;SDS011;486;48.726;8.964;2022-10-17T00:49:46;4.37;;;4.07;;
994;SDS011;486;48.726;8.964;2022-10-17T00:52:17;5.67;;;4.07;;
994;SDS011;486;48.726;8.964;2022-10-17T00:54:53;4.70;;;4.30;;
994;SDS011;486;48.726;8.964;2022-10-17T00:57:24;4.83;;;4.43;;
994;SDS011;486;48.726;8.964;2022-10-17T00:59:57;4.80;;;4.40;;
994;SDS011;486;48.726;8.964;2022-10-17T01:02:30;4.20;;;3.67;;
994;SDS011;486;48.726;8.964;2022-10-17T01:04:59;4.23;;;3.83;;
994;SDS011;486;48.726;8.964;2022-10-17T01:07:29;4.70;;;4.40;;
994;SDS011;486;48.726;8.964;2022-10-17T01:10:02;5.80;;;5.27;;
994;SDS011;486;48.726;8.964;2022-10-17T01:12:37;5.07;;;4.67;;
994;SDS011;486;48.726;8.964;2022-10-17T01:15:18;5.70;;;5.10;;
994;SDS011;486;48.726;8.964;2022-10-17T01:18:00;4.90;;;4.27;;
994;SDS011;486;48.726;8.964;2022-10-17T01:23:52;4.40;;;4.10;;
994;SDS011;486;48.726;8.964;2022-10-17T01:27:03;5.50;;;4.27;;
994;SDS011;486;48.726;8.964;2022-10-17T01:30:11;7.43;;;4.77;;
994;SDS011;486;48.726;8.964;2022-10-17T01:33:01;4.20;;;3.97;;
994;SDS011;486;48.726;8.964;2022-10-17T01:35:37;4.90;;;4.50;;
994;SDS011;486;48.726;8.964;2022-10-17T01:38:10;4.93;;;4.40;;
994;SDS011;486;48.726;8.964;2022-10-17T01:40:47;8.93;;;5.00;;
994;SDS011;486;48.726;8.964;2022-10-17T01:43:23;5.80;;;4.90;;
994;SDS011;486;48.726;8.964;2022-10-17T01:46:00;4.70;;;4.30;;
994;SDS011;486;48.726;8.964;2022-10-17T01:48:39;5.40;;;5.00;;
994;SDS011;486;48.726;8.964;2022-10-17T01:51:12;4.23;;;3.90;;
994;SDS011;486;48.726;8.964;2022-10-17T01:53:48;4.27;;;3.93;;
994;SDS011;486;48.726;8.964;2022-10-17T01:56:21;5.90;;;4.47;;
994;SDS011;486;48.726;8.964;2022-10-17T01:58:54;5.70;;;4.80;;
994;SDS011;486;48.726;8.964;2022-10-17T02:01:29;4.30;;;3.90;;
994;SDS011;486;48.726;8.964;2022-10-17T02:04:02;4.67;;;4.27;;
994;SDS011;486;48.726;8.964;2022-10-17T02:06:33;5.67;;;4.00;;
994;SDS011;486;48.726;8.964;2022-10-17T02:09:17;4.50;;;4.10;;
994;SDS011;486;48.726;8.964;2022-10-17T02:11:56;4.90;;;4.40;;
994;SDS011;486;48.726;8.964;2022-10-17T02:14:47;5.13;;;4.73;;
994;SDS011;486;48.726;8.964;2022-10-17T02:17:44;4.53;;;4.10;;
994;SDS011;486;48.726;8.964;2022-10-17T02:20:29;5.90;;;4.77;;
994;SDS011;486;48.726;8.964;2022-10-17T02:23:06;4.00;;;3.70;;
994;SDS011;486;48.726;8.964;2022-10-17T02:25:42;8.70;;;4.70;;
994;SDS011;486;48.726;8.964;2022-10-17T02:28:18;4.70;;;4.30;;
994;SDS011;486;48.726;8.964;2022-10-17T02:31:01;4.80;;;4.40;;
994;SDS011;486;48.726;8.964;2022-10-17T02:33:36;5.80;;;4.63;;
994;SDS011;486;48.726;8.964;2022-10-17T02:36:14;4.83;;;4.47;;
994;SDS011;486;48.726;8.964;2022-10-17T02:38:47;5.87;;;4.67;;
994;SDS011;486;48.726;8.964;2022-10-17T02:41:18;5.60;;;5.10;;
994;SDS011;486;48.726;8.964;2022-10-17T02:43:47;4.87;;;4.30;;
994;SDS011;486;48.726;8.964;2022-10-17T02:46:18;5.83;;;4.60;;
994;SDS011;486;48.726;8.964;2022-10-17T02:48:50;4.57;;;4.27;;
994;SDS011;486;48.726;8.964;2022-10-17T02:51:27;5.10;;;4.70;;
994;SDS011;486;48.726;8.964;2022-10-17T02:54:06;4.60;;;3.83;;
994;SDS011;486;48.726;8.964;2022-10-17T02:56:42;4.90;;;4.50;;
994;SDS011;486;48.726;8.964;2022-10-17T02:59:18;4.60;;;4.27;;
994;SDS011;486;48.726;8.964;2022-10-17T03:01:49;5.20;;;4.80;;
994;SDS011;486;48.726;8.964;2022-10-17T03:04:19;5.40;;;4.50;;
994;SDS011;486;48.726;8.964;2022-10-17T03:06:51;5.40;;;4.90;;
994;SDS011;486;48.726;8.964;2022-10-17T03:09:21;5.03;;;4.63;;
994;SDS011;486;48.726;8.964;2022-10-17T03:11:50;5.07;;;4.67;;
994;SDS011;486;48.726;8.964;2022-10-17T03:14:19;4.47;;;4.17;;
994;SDS011;486;48.726;8.964;2022-10-17T03:16:48;5.50;;;5.00;;
994;SDS011;486;48.726;8.964;2022-10-17T03:19:17;5.47;;;4.40;;
994;SDS011;486;48.726;8.964;2022-10-17T03:21:46;6.13;;;5.53;;
994;SDS011;486;48.726;8.964;2022-10-17T03:24:18;5.53;;;5.03;;
994;SDS011;486;48.726;8.964;2022-10-17T03:26:47;4.87;;;4.47;;
994;SDS011;486;48.726;8.964;2022-10-17T03:29:16;5.57;;;5.17;;
994;SDS011;486;48.726;8.964;2022-10-17T03:31:45;5.37;;;4.87;;
994;SDS011;486;48.726;8.964;2022-10-17T03:34:15;7.77;;;5.77;;
994;SDS011;486;48.726;8.964;2022-10-17T03:36:44;5.93;;;5.20;;
994;SDS011;486;48.726;8.964;2022-10-17T03:39:13;5.77;;;5.27;;
994;SDS011;486;48.726;8.964;2022-10-17T03:41:46;5.10;;;4.70;;
994;SDS011;486;48.726;8.964;2022-10-17T03:44:15;5.60;;;5.10;;
994;SDS011;486;48.726;8.964;2022-10-17T03:46:44;10.00;;;4.83;;
994;SDS011;486;48.726;8.964;2022-10-17T03:49:13;6.93;;;5.47;;
994;SDS011;486;48.726;8.964;2022-10-17T03:51:42;4.90;;;4.50;;
994;SDS011;486;48.726;8.964;2022-10-17T03:54:13;6.73;;;4.50;;
994;SDS011;486;48.726;8.964;2022-10-17T03:56:42;4.93;;;4.53;;
994;SDS011;486;48.726;8.964;2022-10-17T03:59:16;7.70;;;7.00;;
994;SDS011;486;48.726;8.964;2022-10-17T04:01:54;5.27;;;4.70;;
994;SDS011;486;48.726;8.964;2022-10-17T04:04:23;5.50;;;5.10;;
994;SDS011;486;48.726;8.964;2022-10-17T04:06:52;5.77;;;5.27;;
994;SDS011;486;48.726;8.964;2022-10-17T04:09:21;6.37;;;5.77;;
994;SDS011;486;48.726;8.964;2022-10-17T04:12:04;5.53;;;5.03;;
994;SDS011;486;48.726;8.964;2022-10-17T04:14:35;6.13;;;5.53;;
994;SDS011;486;48.726;8.964;2022-10-17T04:17:05;5.90;;;5.40;;
994;SDS011;486;48.726;8.964;2022-10-17T04:19:34;5.30;;;4.80;;
994;SDS011;486;48.726;8.964;2022-10-17T04:22:03;5.70;;;5.20;;
994;SDS011;486;48.726;8.964;2022-10-17T04:24:35;5.27;;;4.87;;
994;SDS011;486;48.726;8.964;2022-10-17T04:27:10;6.30;;;5.70;;
994;SDS011;486;48.726;8.964;2022-10-17T04:29:43;6.97;;;5.20;;
994;SDS011;486;48.726;8.964;2022-10-17T04:32:19;5.87;;;5.37;;
994;SDS011;486;48.726;8.964;2022-10-17T04:35:18;5.93;;;5.33;;
994;SDS011;486;48.726;8.964;2022-10-17T04:37:53;5.73;;;5.23;;
994;SDS011;486;48.726;8.964;2022-10-17T04:40:23;6.50;;;5.23;;
994;SDS011;486;48.726;8.964;2022-10-17T04:42:55;5.77;;;5.27;;
994;SDS011;486;48.726;8.964;2022-10-17T04:45:31;5.63;;;5.13;;
994;SDS011;486;48.726;8.964;2022-10-17T04:48:02;5.43;;;4.57;;
994;SDS011;486;48.726;8.964;2022-10-17T04:50:32;4.80;;;4.40;;
994;SDS011;486;48.726;8.964;2022-10-17T04:53:16;6.30;;;5.70;;
994;SDS011;486;48.726;8.964;2022-10-17T04:55:45;8.20;;;4.90;;
994;SDS011;486;48.726;8.964;2022-10-17T04:58:17;6.13;;;5.63;;
994;SDS011;486;48.726;8.964;2022-10-17T05:00:47;5.73;;;5.23;;
994;SDS011;486;48.726;8.964;2022-10-17T05:03:23;6.20;;;5.63;;
994;SDS011;486;48.726;8.964;2022-10-17T05:05:53;5.90;;;5.40;;
994;SDS011;486;48.726;8.964;2022-10-17T05:08:22;5.73;;;5.33;;
994;SDS011;486;48.726;8.964;2022-10-17T05:10:51;5.87;;;5.27;;
994;SDS011;486;48.726;8.964;2022-10-17T05:13:22;6.77;;;6.20;;
994;SDS011;486;48.726;8.964;2022-10-17T05:15:51;6.07;;;5.47;;
994;SDS011;486;48.726;8.964;2022-10-17T05:18:20;5.93;;;5.43;;
994;SDS011;486;48.726;8.964;2022-10-17T05:20:50;6.57;;;6.00;;
994;SDS011;486;48.726;8.964;2022-10-17T05:23:19;6.93;;;5.90;;
994;SDS011;486;48.726;8.964;2022-10-17T05:25:52;6.67;;;6.07;;
994;SDS011;486;48.726;8.964;2022-10-17T05:28:25;7.40;;;6.70;;
994;SDS011;486;48.726;8.964;2022-10-17T05:31:00;6.33;;;5.73;;
994;SDS011;486;48.726;8.964;2022-10-17T05:33:30;8.20;;;7.40;;
994;SDS011;486;48.726;8.964;2022-10-17T05:36:00;5.67;;;5.17;;
994;SDS011;486;48.726;8.964;2022-10-17T05:38:30;5.93;;;5.43;;
994;SDS011;486;48.726;8.964;2022-10-17T05:41:01;6.60;;;5.73;;
994;SDS011;486;48.726;8.964;2022-10-17T05:43:35;20.43;;;6.60;;
994;SDS011;486;48.726;8.964;2022-10-17T05:46:05;7.37;;;6.40;;
994;SDS011;486;48.726;8.964;2022-10-17T05:48:35;6.97;;;6.33;;
994;SDS011;486;48.726;8.964;2022-10-17T05:51:05;6.53;;;5.90;;
994;SDS011;486;48.726;8.964;2022-10-17T05:53:36;8.30;;;7.00;;
994;SDS011;486;48.726;8.964;2022-10-17T05:56:13;7.47;;;6.80;;
994;SDS011;486;48.726;8.964;2022-10-17T05:58:48;7.77;;;7.10;;
994;SDS011;486;48.726;8.964;2022-10-17T06:01:37;7.03;;;6.30;;
994;SDS011;486;48.726;8.964;2022-10-17T06:04:06;6.80;;;6.10;;
994;SDS011;486;48.726;8.964;2022-10-17T06:06:36;7.80;;;7.10;;
994;SDS011;486;48.726;8.964;2022-10-17T06:09:07;8.77;;;7.97;;
994;SDS011;486;48.726;8.964;2022-10-17T06:11:40;6.40;;;5.83;;
994;SDS011;486;48.726;8.964;2022-10-17T06:14:13;7.17;;;6.47;;
994;SDS011;486;48.726;8.964;2022-10-17T06:16:42;7.10;;;6.40;;
994;SDS011;486;48.726;8.964;2022-10-17T06:19:11;7.30;;;6.60;;
994;SDS011;486;48.726;8.964;2022-10-17T06:21:39;6.87;;;6.27;;
994;SDS011;486;48.726;8.964;2022-10-17T06:24:12;7.43;;;6.30;;
994;SDS011;486;48.726;8.964;2022-10-17T06:26:41;7.30;;;6.60;;
994;SDS011;486;48.726;8.964;2022-10-17T06:29:15;7.37;;;6.73;;
994;SDS011;486;48.726;8.964;2022-10-17T06:31:47;7.90;;;7.07;;
994;SDS011;486;48.726;8.964;2022-10-17T06:34:17;7.53;;;6.73;;
994;SDS011;486;48.726;8.964;2022-10-17T06:36:46;7.87;;;7.10;;
994;SDS011;486;48.726;8.964;2022-10-17T06:39:17;6.93;;;6.33;;
994;SDS011;486;48.726;8.964;2022-10-17T06:41:55;8.87;;;6.80;;
994;SDS011;486;48.726;8.964;2022-10-17T06:44:44;7.57;;;6.87;;
994;SDS011;486;48.726;8.964;2022-10-17T06:47:19;6.93;;;6.23;;
994;SDS011;486;48.726;8.964;2022-10-17T06:49:50;7.30;;;6.70;;
994;SDS011;486;48.726;8.964;2022-10-17T06:52:28;7.40;;;6.80;;
994;SDS011;486;48.726;8.964;2022-10-17T06:55:17;7.90;;;7.20;;
994;SDS011;486;48.726;8.964;2022-10-17T06:58:01;6.53;;;6.03;;
994;SDS011;486;48.726;8.964;2022-10-17T07:00:45;6.63;;;6.03;;
994;SDS011;486;48.726;8.964;2022-10-17T07:03:15;6.70;;;6.10;;
994;SDS011;486;48.726;8.964;2022-10-17T07:05:49;7.33;;;6.43;;
994;SDS011;486;48.726;8.964;2022-10-17T07:08:19;6.80;;;6.13;;
994;SDS011;486;48.726;8.964;2022-10-17T07:10:48;10.63;;;7.00;;
994;SDS011;486;48.726;8.964;2022-10-17T07:13:18;6.10;;;5.60;;
994;SDS011;486;48.726;8.964;2022-10-17T07:15:51;7.43;;;6.83;;
994;SDS011;486;48.726;8.964;2022-10-17T07:18:26;6.83;;;6.23;;
994;SDS011;486;48.726;8.964;2022-10-17T07:20:55;6.47;;;5.87;;
994;SDS011;486;48.726;8.964;2022-10-17T07:23:25;5.83;;;5.43;;
994;SDS011;486;48.726;8.964;2022-10-17T07:25:57;6.67;;;6.17;;
994;SDS011;486;48.726;8.964;2022-10-17T07:28:28;7.50;;;6.10;;
994;SDS011;486;48.726;8.964;2022-10-17T07:31:07;6.37;;;5.83;;
994;SDS011;486;48.726;8.964;2022-10-17T07:33:39;6.10;;;5.60;;
994;SDS011;486;48.726;8.964;2022-10-17T07:36:09;6.10;;;5.50;;
994;SDS011;486;48.726;8.964;2022-10-17T07:38:38;6.40;;;5.80;;
994;SDS011;486;48.726;8.964;2022-10-17T07:41:08;6.97;;;6.37;;
994;SDS011;486;48.726;8.964;2022-10-17T07:43:38;5.90;;;5.50;;
994;SDS011;486;48.726;8.964;2022-10-17T07:46:11;5.80;;;5.40;;
994;SDS011;486;48.726;8.964;2022-10-17T07:48:40;5.70;;;5.00;;
994;SDS011;486;48.726;8.964;2022-10-17T07:51:09;6.63;;;6.03;;
994;SDS011;486;48.726;8.964;2022-10-17T07:53:38;5.80;;;5.30;;
994;SDS011;486;48.726;8.964;2022-10-17T07:56:08;5.80;;;5.30;;
994;SDS011;486;48.726;8.964;2022-10-17T07:58:37;6.57;;;5.97;;
994;SDS011;486;48.726;8.964;2022-10-17T08:01:07;5.67;;;5.17;;
994;SDS011;486;48.726;8.964;2022-10-17T08:03:39;5.70;;;4.70;;
994;SDS011;486;48.726;8.964;2022-10-17T08:06:08;5.30;;;4.90;;
994;SDS011;486;48.726;8.964;2022-10-17T08:08:37;5.77;;;5.27;;
994;SDS011;486;48.726;8.964;2022-10-17T08:11:07;4.60;;;4.30;;
994;SDS011;486;48.726;8.964;2022-10-17T08:13:38;5.23;;;4.70;;
994;SDS011;486;48.726;8.964;2022-10-17T08:16:11;5.43;;;4.57;;
994;SDS011;486;48.726;8.964;2022-10-17T08:18:41;4.97;;;4.23;;
994;SDS011;486;48.726;8.964;2022-10-17T08:21:10;5.47;;;4.97;;
994;SDS011;486;48.726;8.964;2022-10-17T08:23:40;5.03;;;4.63;;
994;SDS011;486;48.726;8.964;2022-10-17T08:26:09;4.70;;;4.37;;
994;SDS011;486;48.726;8.964;2022-10-17T08:28:41;5.27;;;4.13;;
994;SDS011;486;48.726;8.964;2022-10-17T08:31:13;4.77;;;4.27;;
994;SDS011;486;48.726;8.964;2022-10-17T08:33:45;6.30;;;3.77;;
994;SDS011;486;48.726;8.964;2022-10-17T08:36:16;4.00;;;3.70;;
994;SDS011;486;48.726;8.964;2022-10-17T08:38:47;4.83;;;4.30;;
994;SDS011;486;48.726;8.964;2022-10-17T08:41:19;3.47;;;3.27;;
994;SDS011;486;48.726;8.964;2022-10-17T08:44:11;4.57;;;4.07;;
994;SDS011;486;48.726;8.964;2022-10-17T08:46:53;3.47;;;3.17;;
994;SDS011;486;48.726;8.964;2022-10-17T08:49:30;3.90;;;3.60;;
994;SDS011;486;48.726;8.964;2022-10-17T08:52:19;4.43;;;4.03;;
994;SDS011;486;48.726;8.964;2022-10-17T08:55:00;4.07;;;3.73;;
994;SDS011;486;48.726;8.964;2022-10-17T08:57:29;3.30;;;2.90;;
994;SDS011;486;48.726;8.964;2022-10-17T08:59:58;4.10;;;3.80;;
994;SDS011;486;48.726;8.964;2022-10-17T09:02:33;3.47;;;3.23;;
994;SDS011;486;48.726;8.964;2022-10-17T09:05:23;4.00;;;3.70;;
994;SDS011;486;48.726;8.964;2022-10-17T09:08:02;3.33;;;3.13;;
994;SDS011;486;48.726;8.964;2022-10-17T09:10:43;3.80;;;3.50;;
994;SDS011;486;48.726;8.964;2022-10-17T09:13:29;4.33;;;3.93;;
994;SDS011;486;48.726;8.964;2022-10-17T09:16:19;4.03;;;3.30;;
994;SDS011;486;48.726;8.964;2022-10-17T09:19:18;3.50;;;3.20;;
994;SDS011;486;48.726;8.964;2022-10-17T09:21:51;4.20;;;3.90;;
994;SDS011;486;48.726;8.964;2022-10-17T09:24:27;3.43;;;3.20;;
994;SDS011;486;48.726;8.964;2022-10-17T09:27:10;3.63;;;3.13;;
994;SDS011;486;48.726;8.964;2022-10-17T09:29:52;3.70;;;3.30;;
994;SDS011;486;48.726;8.964;2022-10-17T09:32:27;3.07;;;2.87;;
994;SDS011;486;48.726;8.964;2022-10-17T09:34:59;3.03;;;2.77;;
994;SDS011;486;48.726;8.964;2022-10-17T09:37:31;3.17;;;2.93;;
994;SDS011;486;48.726;8.964;2022-10-17T09:40:00;4.10;;;3.10;;
994;SDS011;486;48.726;8.964;2022-10-17T09:42:29;2.87;;;2.67;;
994;SDS011;486;48.726;8.964;2022-10-17T09:45:02;3.23;;;3.00;;
994;SDS011;486;48.726;8.964;2022-10-17T09:47:45;3.17;;;2.90;;
994;SDS011;486;48.726;8.964;2022-10-17T09:50:24;2.77;;;2.57;;
994;SDS011;486;48.726;8.964;2022-10-17T09:52:56;3.70;;;3.40;;
994;SDS011;486;48.726;8.964;2022-10-17T09:55:35;2.60;;;2.50;;
994;SDS011;486;48.726;8.964;2022-10-17T09:58:08;2.60;;;2.43;;
994;SDS011;486;48.726;8.964;2022-10-17T10:00:39;3.67;;;3.03;;
994;SDS011;486;48.726;8.964;2022-10-17T10:03:13;3.30;;;3.10;;
994;SDS011;486;48.726;8.964;2022-10-17T10:08:34;3.53;;;3.30;;
994;SDS011;486;48.726;8.964;2022-10-17T10:11:16;3.27;;;3.07;;
994;SDS011;486;48.726;8.964;2022-10-17T10:13:46;2.90;;;2.70;;
994;SDS011;486;48.726;8.964;2022-10-17T10:16:17;3.33;;;3.03;;
994;SDS011;486;48.726;8.964;2022-10-17T10:18:51;3.23;;;3.03;;
994;SDS011;486;48.726;8.964;2022-10-17T10:21:23;4.30;;;3.27;;
994;SDS011;486;48.726;8.964;2022-10-17T10:26:41;2.90;;;2.70;;
994;SDS011;486;48.726;8.964;2022-10-17T10:29:23;3.40;;;3.10;;
994;SDS011;486;48.726;8.964;2022-10-17T10:32:06;3.53;;;3.33;;
994;SDS011;486;48.726;8.964;2022-10-17T10:34:37;3.40;;;3.10;;
994;SDS011;486;48.726;8.964;2022-10-17T10:37:18;3.27;;;2.90;;
994;SDS011;486;48.726;8.964;2022-10-17T10:39:50;2.90;;;2.70;;
994;SDS011;486;48.726;8.964;2022-10-17T10:42:22;3.70;;;3.27;;
994;SDS011;486;48.726;8.964;2022-10-17T10:44:54;2.93;;;2.73;;
994;SDS011;486;48.726;8.964;2022-10-17T10:47:28;3.10;;;2.80;;
994;SDS011;486;48.726;8.964;2022-10-17T10:53:06;3.57;;;3.27;;
994;SDS011;486;48.726;8.964;2022-10-17T10:55:46;2.50;;;2.40;;
994;SDS011;486;48.726;8.964;2022-10-17T10:58:22;2.63;;;2.43;;
994;SDS011;486;48.726;8.964;2022-10-17T11:01:02;4.83;;;3.30;;
994;SDS011;486;48.726;8.964;2022-10-17T11:03:38;4.63;;;3.30;;
994;SDS011;486;48.726;8.964;2022-10-17T11:06:18;3.10;;;2.90;;
994;SDS011;486;48.726;8.964;2022-10-17T11:09:02;5.43;;;3.10;;
994;SDS011;486;48.726;8.964;2022-10-17T11:11:42;2.77;;;2.57;;
994;SDS011;486;48.726;8.964;2022-10-17T11:14:15;2.90;;;2.80;;
994;SDS011;486;48.726;8.964;2022-10-17T11:17:05;3.40;;;3.13;;
994;SDS011;486;48.726;8.964;2022-10-17T11:19:46;3.83;;;3.40;;
994;SDS011;486;48.726;8.964;2022-10-17T11:22:29;3.53;;;3.23;;
994;SDS011;486;48.726;8.964;2022-10-17T11:25:03;3.40;;;3.20;;
994;SDS011;486;48.726;8.964;2022-10-17T11:27:41;3.37;;;3.00;;
994;SDS011;486;48.726;8.964;2022-10-17T11:30:11;3.67;;;2.80;;
994;SDS011;486;48.726;8.964;2022-10-17T11:32:42;3.70;;;3.07;;
994;SDS011;486;48.726;8.964;2022-10-17T11:35:18;2.83;;;2.63;;
994;SDS011;486;48.726;8.964;2022-10-17T11:37:54;3.13;;;2.93;;
994;SDS011;486;48.726;8.964;2022-10-17T11:40:41;3.10;;;2.80;;
994;SDS011;486;48.726;8.964;2022-10-17T11:43:13;3.10;;;2.80;;
994;SDS011;486;48.726;8.964;2022-10-17T11:45:48;3.17;;;2.90;;
994;SDS011;486;48.726;8.964;2022-10-17T11:48:24;4.00;;;2.63;;
994;SDS011;486;48.726;8.964;2022-10-17T11:50:59;4.97;;;2.90;;
994;SDS011;486;48.726;8.964;2022-10-17T11:53:43;3.03;;;2.83;;
994;SDS011;486;48.726;8.964;2022-10-17T11:56:18;3.30;;;3.10;;
994;SDS011;486;48.726;8.964;2022-10-17T11:59:00;3.20;;;2.90;;
994;SDS011;486;48.726;8.964;2022-10-17T12:01:52;3.13;;;2.90;;
994;SDS011;486;48.726;8.964;2022-10-17T12:04:29;2.97;;;2.77;;
994;SDS011;486;48.726;8.964;2022-10-17T12:07:13;3.83;;;3.00;;
994;SDS011;486;48.726;8.964;2022-10-17T12:09:50;3.13;;;2.93;;
994;SDS011;486;48.726;8.964;2022-10-17T12:12:30;3.40;;;3.10;;
994;SDS011;486;48.726;8.964;2022-10-17T12:17:57;2.60;;;2.50;;
994;SDS011;486;48.726;8.964;2022-10-17T12:20:28;3.20;;;3.00;;
994;SDS011;486;48.726;8.964;2022-10-17T12:23:05;3.70;;;3.43;;
994;SDS011;486;48.726;8.964;2022-10-17T12:25:54;3.20;;;2.90;;
994;SDS011;486;48.726;8.964;2022-10-17T12:28:29;3.50;;;3.30;;
994;SDS011;486;48.726;8.964;2022-10-17T12:31:08;3.10;;;3.00;;
994;SDS011;486;48.726;8.964;2022-10-17T12:33:50;4.20;;;2.93;;
994;SDS011;486;48.726;8.964;2022-10-17T12:42:29;3.13;;;2.93;;
994;SDS011;486;48.726;8.964;2022-10-17T12:45:11;3.30;;;3.00;;
994;SDS011;486;48.726;8.964;2022-10-17T12:51:27;4.40;;;4.20;;
994;SDS011;486;48.726;8.964;2022-10-17T12:53:57;5.13;;;4.93;;
994;SDS011;486;48.726;8.964;2022-10-17T12:56:29;5.57;;;5.37;;
994;SDS011;486;48.726;8.964;2022-10-17T12:59:08;6.23;;;6.03;;
994;SDS011;486;48.726;8.964;2022-10-17T13:01:45;6.70;;;6.50;;
994;SDS011;486;48.726;8.964;2022-10-17T13:04:18;7.27;;;6.93;;
994;SDS011;486;48.726;8.964;2022-10-17T13:06:48;8.50;;;7.93;;
994;SDS011;486;48.726;8.964;2022-10-17T13:09:23;9.00;;;8.70;;
994;SDS011;486;48.726;8.964;2022-10-17T13:11:55;8.80;;;8.50;;
994;SDS011;486;48.726;8.964;2022-10-17T13:14:27;9.70;;;9.30;;
994;SDS011;486;48.726;8.964;2022-10-17T13:17:00;8.97;;;8.67;;
994;SDS011;486;48.726;8.964;2022-10-17T13:19:38;10.00;;;9.70;;
994;SDS011;486;48.726;8.964;2022-10-17T13:22:10;10.00;;;9.63;;
994;SDS011;486;48.726;8.964;2022-10-17T13:24:44;9.73;;;9.43;;
994;SDS011;486;48.726;8.964;2022-10-17T13:27:20;10.97;;;10.37;;
994;SDS011;486;48.726;8.964;2022-10-17T13:29:53;10.10;;;9.60;;
994;SDS011;486;48.726;8.964;2022-10-17T13:32:26;9.70;;;9.20;;
994;SDS011;486;48.726;8.964;2022-10-17T13:35:04;9.40;;;9.10;;
994;SDS011;486;48.726;8.964;2022-10-17T13:37:36;10.33;;;9.90;;
994;SDS011;486;48.726;8.964;2022-10-17T13:40:13;10.97;;;10.50;;
994;SDS011;486;48.726;8.964;2022-10-17T13:42:44;10.07;;;9.70;;
994;SDS011;486;48.726;8.964;2022-10-17T13:45:16;10.40;;;10.10;;
994;SDS011;486;48.726;8.964;2022-10-17T13:47:52;14.40;;;13.60;;
994;SDS011;486;48.726;8.964;2022-10-17T13:50:23;10.23;;;9.83;;
994;SDS011;486;48.726;8.964;2022-10-17T13:53:14;10.50;;;10.10;;
994;SDS011;486;48.726;8.964;2022-10-17T13:55:54;10.77;;;10.27;;
994;SDS011;486;48.726;8.964;2022-10-17T13:59:38;11.70;;;11.30;;
994;SDS011;486;48.726;8.964;2022-10-17T14:02:13;11.50;;;11.20;;
994;SDS011;486;48.726;8.964;2022-10-17T14:04:46;11.77;;;11.27;;
994;SDS011;486;48.726;8.964;2022-10-17T14:07:21;10.40;;;10.10;;
994;SDS011;486;48.726;8.964;2022-10-17T14:09:54;11.80;;;11.33;;
994;SDS011;486;48.726;8.964;2022-10-17T14:12:23;11.53;;;11.13;;
994;SDS011;486;48.726;8.964;2022-10-17T14:14:52;11.30;;;10.90;;
994;SDS011;486;48.726;8.964;2022-10-17T14:17:23;11.27;;;10.87;;
994;SDS011;486;48.726;8.964;2022-10-17T14:19:58;11.27;;;10.87;;
994;SDS011;486;48.726;8.964;2022-10-17T14:22:33;12.50;;;12.10;;
994;SDS011;486;48.726;8.964;2022-10-17T14:25:03;11.50;;;11.10;;
994;SDS011;486;48.726;8.964;2022-10-17T14:27:54;11.40;;;10.97;;
994;SDS011;486;48.726;8.964;2022-10-17T14:30:33;11.40;;;11.10;;
994;SDS011;486;48.726;8.964;2022-10-17T14:33:05;11.40;;;11.00;;
994;SDS011;486;48.726;8.964;2022-10-17T14:35:38;11.33;;;10.93;;
994;SDS011;486;48.726;8.964;2022-10-17T14:38:16;12.20;;;11.80;;
994;SDS011;486;48.726;8.964;2022-10-17T14:40:48;12.30;;;11.90;;
994;SDS011;486;48.726;8.964;2022-10-17T14:43:19;11.77;;;11.47;;
994;SDS011;486;48.726;8.964;2022-10-17T14:45:51;11.40;;;11.00;;
994;SDS011;486;48.726;8.964;2022-10-17T14:48:24;12.00;;;11.60;;
994;SDS011;486;48.726;8.964;2022-10-17T14:51:09;12.03;;;11.53;;
994;SDS011;486;48.726;8.964;2022-10-17T14:53:41;12.23;;;11.73;;
994;SDS011;486;48.726;8.964;2022-10-17T14:56:21;12.10;;;11.70;;
994;SDS011;486;48.726;8.964;2022-10-17T14:58:52;11.37;;;10.90;;
994;SDS011;486;48.726;8.964;2022-10-17T15:01:21;11.50;;;11.20;;
994;SDS011;486;48.726;8.964;2022-10-17T15:03:50;11.90;;;11.50;;
994;SDS011;486;48.726;8.964;2022-10-17T15:06:22;10.60;;;10.17;;
994;SDS011;486;48.726;8.964;2022-10-17T15:08:55;11.07;;;10.70;;
994;SDS011;486;48.726;8.964;2022-10-17T15:11:25;10.93;;;10.53;;
994;SDS011;486;48.726;8.964;2022-10-17T15:13:54;10.50;;;10.10;;
994;SDS011;486;48.726;8.964;2022-10-17T15:16:23;10.67;;;10.27;;
994;SDS011;486;48.726;8.964;2022-10-17T15:18:54;10.37;;;9.90;;
994;SDS011;486;48.726;8.964;2022-10-17T15:21:26;10.00;;;9.70;;
994;SDS011;486;48.726;8.964;2022-10-17T15:23:56;9.20;;;8.90;;
994;SDS011;486;48.726;8.964;2022-10-17T15:26:28;9.60;;;9.00;;
994;SDS011;486;48.726;8.964;2022-10-17T15:28:59;8.90;;;8.60;;
994;SDS011;486;48.726;8.964;2022-10-17T15:31:29;8.37;;;7.87;;
994;SDS011;486;48.726;8.964;2022-10-17T15:33:59;9.10;;;8.60;;
994;SDS011;486;48.726;8.964;2022-10-17T15:36:31;8.60;;;8.23;;
994;SDS011;486;48.726;8.964;2022-10-17T15:39:06;9.63;;;8.13;;
994;SDS011;486;48.726;8.964;2022-10-17T15:41:37;8.60;;;8.20;;
994;SDS011;486;48.726;8.964;2022-10-17T15:44:05;7.77;;;7.37;;
994;SDS011;486;48.726;8.964;2022-10-17T15:46:34;7.77;;;7.37;;
994;SDS011;486;48.726;8.964;2022-10-17T15:49:08;7.07;;;6.73;;
994;SDS011;486;48.726;8.964;2022-10-17T15:51:44;6.97;;;6.37;;
994;SDS011;486;48.726;8.964;2022-10-17T15:54:12;6.70;;;6.30;;
994;SDS011;486;48.726;8.964;2022-10-17T15:56:42;7.30;;;6.57;;
994;SDS011;486;48.726;8.964;2022-10-17T15:59:20;6.70;;;6.33;;
994;SDS011;486;48.726;8.964;2022-10-17T16:01:54;6.13;;;5.80;;
994;SDS011;486;48.726;8.964;2022-10-17T16:04:23;6.50;;;6.10;;
994;SDS011;486;48.726;8.964;2022-10-17T16:06:57;7.23;;;6.93;;
994;SDS011;486;48.726;8.964;2022-10-17T16:09:26;5.77;;;5.47;;
994;SDS011;486;48.726;8.964;2022-10-17T16:11:55;5.60;;;5.30;;
994;SDS011;486;48.726;8.964;2022-10-17T16:14:24;5.00;;;4.70;;
994;SDS011;486;48.726;8.964;2022-10-17T16:16:53;5.53;;;5.13;;
994;SDS011;486;48.726;8.964;2022-10-17T16:19:23;5.40;;;5.00;;
994;SDS011;486;48.726;8.964;2022-10-17T16:21:57;4.83;;;4.53;;
994;SDS011;486;48.726;8.964;2022-10-17T16:24:27;4.40;;;4.10;;
994;SDS011;486;48.726;8.964;2022-10-17T16:26:56;4.20;;;4.00;;
994;SDS011;486;48.726;8.964;2022-10-17T16:29:25;3.70;;;3.50;;
994;SDS011;486;48.726;8.964;2022-10-17T16:31:54;4.87;;;4.40;;
994;SDS011;486;48.726;8.964;2022-10-17T16:34:23;4.33;;;3.93;;
994;SDS011;486;48.726;8.964;2022-10-17T16:36:57;5.67;;;4.93;;
994;SDS011;486;48.726;8.964;2022-10-17T16:39:26;4.00;;;3.67;;
994;SDS011;486;48.726;8.964;2022-10-17T16:41:55;4.70;;;3.43;;
994;SDS011;486;48.726;8.964;2022-10-17T16:44:24;3.63;;;3.30;;
994;SDS011;486;48.726;8.964;2022-10-17T16:46:53;3.80;;;3.50;;
994;SDS011;486;48.726;8.964;2022-10-17T16:49:22;3.63;;;3.17;;
994;SDS011;486;48.726;8.964;2022-10-17T16:51:51;3.63;;;3.33;;